Time;durP1;ratioP1;P1;durP2;ratioP2;P2;SDS_P1;SDS_P2;PMS_P1;PMS_P2;Temp;Humidity;BMP_temperature;BMP_pressure;BME280_temperature;BME280_humidity;BME280_pressure;Samples;Min_cycle;Max_cycle;Signal;HPM_P1;HPM_P2
2022/01/26 00:00:18;;;;;;;25.92;13.07;;;;;;;4.72;65.07;101023.53;4369708;32;34223;-87
2022/01/26 00:05:49;;;;;;;30.55;12.55;;;;;;;4.86;65.08;101024.41;4368698;32;32769;-88
2022/01/26 00:08:22;;;;;;;24.37;12.32;;;;;;;4.28;66.58;101027.00;4369977;32;33131;-87
2022/01/26 00:10:50;;;;;;;27.52;13.43;;;;;;;4.50;66.19;101027.00;4374817;32;34207;-87
2022/01/26 00:13:18;;;;;;;27.70;12.98;;;;;;;4.78;65.42;101028.75;4370642;32;34293;-87
2022/01/26 00:15:45;;;;;;;26.20;12.93;;;;;;;4.92;64.79;101026.13;4366620;32;33485;-88
2022/01/26 00:18:15;;;;;;;27.37;13.43;;;;;;;4.87;64.89;101023.53;4367910;32;33585;-87
2022/01/26 00:20:53;;;;;;;29.17;13.18;;;;;;;4.96;64.36;101032.25;4379782;32;33788;-87
2022/01/26 00:26:28;;;;;;;26.98;13.18;;;;;;;4.56;65.88;101032.25;4334240;32;33181;-87
2022/01/26 00:39:48;;;;;;;28.30;13.65;;;;;;;4.83;65.10;101029.63;4340151;32;34343;-87
2022/01/26 00:42:16;;;;;;;26.65;13.65;;;;;;;5.02;64.72;101032.22;4372259;32;32500;-88
2022/01/26 00:44:47;;;;;;;29.52;12.82;;;;;;;5.11;64.31;101033.09;4355547;32;34655;-88
2022/01/26 00:47:15;;;;;;;28.33;14.32;;;;;;;4.44;66.26;101040.97;4343238;32;34507;-87
2022/01/26 00:49:43;;;;;;;30.10;13.07;;;;;;;4.86;65.27;101036.63;4361601;32;32595;-86
2022/01/26 00:52:24;;;;;;;27.45;12.73;;;;;;;4.87;64.67;101033.97;4354549;32;33633;-86
2022/01/26 00:54:52;;;;;;;25.67;11.83;;;;;;;4.91;65.08;101034.00;4355881;32;32991;-87
2022/01/26 00:57:21;;;;;;;32.65;13.70;;;;;;;5.35;63.37;101037.41;4356956;32;33904;-87
2022/01/26 00:59:49;;;;;;;27.50;13.55;;;;;;;4.98;64.42;101040.94;4361586;32;33171;-87
2022/01/26 01:02:17;;;;;;;27.77;12.50;;;;;;;4.95;64.46;101030.50;4352148;32;32658;-87
2022/01/26 01:04:45;;;;;;;29.48;12.30;;;;;;;4.80;64.88;101032.25;4343015;32;33858;-88
2022/01/26 01:07:18;;;;;;;29.95;12.57;;;;;;;4.92;64.67;101031.38;4348109;32;32678;-87
2022/01/26 01:09:46;;;;;;;25.00;12.07;;;;;;;4.94;64.42;101028.72;4342859;32;32799;-88
2022/01/26 01:12:14;;;;;;;27.90;13.50;;;;;;;5.13;63.63;101028.72;4346837;32;33152;-88
2022/01/26 01:14:44;;;;;;;24.27;11.90;;;;;;;5.08;63.83;101026.97;4380425;32;33179;-88
2022/01/26 01:17:22;;;;;;;26.62;12.35;;;;;;;5.01;64.00;101022.63;4349111;32;33031;-88
2022/01/26 01:20:11;;;;;;;26.42;13.05;;;;;;;4.87;64.34;101027.88;4378773;32;32759;-87
2022/01/26 01:28:22;;;;;;;24.95;11.75;;;;;;;4.71;64.68;101037.50;4354310;32;34159;-86
2022/01/26 01:30:55;;;;;;;30.23;12.95;;;;;;;5.00;63.81;101034.84;4355717;32;32975;-87
2022/01/26 01:33:31;;;;;;;24.40;11.40;;;;;;;4.85;63.87;101038.38;4366908;32;33052;-87
2022/01/26 01:36:00;;;;;;;32.95;15.40;;;;;;;4.90;63.94;101038.38;4361256;32;34136;-87
2022/01/26 01:38:29;;;;;;;30.58;13.50;;;;;;;5.01;63.44;101031.34;4348872;32;34029;-86
2022/01/26 01:40:57;;;;;;;26.48;12.32;;;;;;;4.90;64.15;101037.50;4355178;32;33935;-86
2022/01/26 01:43:24;;;;;;;33.03;13.18;;;;;;;4.86;64.16;101036.63;4353737;32;34515;-86
2022/01/26 01:45:53;;;;;;;28.05;12.93;;;;;;;4.95;64.00;101030.50;4354183;32;34731;-87
2022/01/26 01:48:26;;;;;;;30.80;13.18;;;;;;;4.82;64.59;101033.13;4379976;32;32831;-87
2022/01/26 01:50:57;;;;;;;27.08;11.63;;;;;;;4.75;65.26;101025.28;4359901;32;33362;-87
2022/01/26 01:53:33;;;;;;;27.58;13.38;;;;;;;4.80;64.79;101032.25;4360934;32;33845;-88
2022/01/26 01:56:01;;;;;;;30.37;13.02;;;;;;;4.97;64.36;101031.38;4349399;32;34004;-87
2022/01/26 01:58:28;;;;;;;22.70;11.93;;;;;;;4.74;65.25;101020.91;4355559;32;33710;-88
2022/01/26 02:00:58;;;;;;;28.35;13.23;;;;;;;4.80;64.84;101037.50;4365008;32;33485;-88
2022/01/26 02:03:26;;;;;;;28.20;12.90;;;;;;;5.17;63.58;101026.97;4370093;32;32942;-88
2022/01/26 02:05:54;;;;;;;25.08;12.07;;;;;;;4.82;64.65;101030.50;4338153;32;33355;-87
2022/01/26 02:08:22;;;;;;;30.10;13.68;;;;;;;4.94;64.24;101028.72;4360145;32;34300;-87
2022/01/26 02:10:50;;;;;;;27.40;13.70;;;;;;;4.85;64.72;101030.50;4368908;32;33245;-87
2022/01/26 02:13:25;;;;;;;25.10;12.63;;;;;;;5.02;63.94;101029.59;4347663;32;34348;-86
2022/01/26 02:16:09;;;;;;;24.42;12.93;;;;;;;4.68;65.37;101021.78;4348620;32;33163;-86
2022/01/26 02:18:53;;;;;;;25.17;12.43;;;;;;;4.84;64.64;101025.25;4353807;32;33110;-86
2022/01/26 02:21:38;;;;;;;27.20;13.68;;;;;;;5.03;64.09;101026.09;4361046;32;33591;-87
2022/01/26 02:57:10;;;;;;;27.08;11.45;;;;;;;5.07;63.06;100999.06;4368991;32;32959;-87
2022/01/26 03:02:25;;;;;;;25.85;11.32;;;;;;;5.06;63.02;100997.31;4362741;32;32977;-87
2022/01/26 03:04:56;;;;;;;23.98;11.23;;;;;;;5.02;63.13;100987.72;4379897;32;32396;-87
2022/01/26 03:07:44;;;;;;;26.52;13.32;;;;;;;4.46;64.75;100989.50;4375636;32;32191;-87
2022/01/26 03:10:33;;;;;;;28.12;12.85;;;;;;;4.54;64.60;100995.63;4375237;32;33963;-87
2022/01/26 03:13:08;;;;;;;21.50;12.02;;;;;;;4.71;64.24;100990.41;4375810;32;34826;-88
2022/01/26 03:15:42;;;;;;;30.02;12.20;;;;;;;4.26;64.82;100996.47;4375524;32;32489;-89
2022/01/26 03:21:04;;;;;;;25.55;11.05;;;;;;;4.35;64.61;100986.03;4348871;32;33245;-89
2022/01/26 03:34:11;;;;;;;26.98;11.23;;;;;;;4.36;65.18;100993.00;4363485;32;33692;-88
2022/01/26 03:36:50;;;;;;;24.70;12.35;;;;;;;4.60;64.46;100989.50;4374844;32;33511;-87
2022/01/26 03:39:20;;;;;;;24.35;11.60;;;;;;;4.69;64.22;100996.50;4369134;32;34139;-88
2022/01/26 03:41:53;;;;;;;22.55;11.07;;;;;;;4.70;63.87;101004.34;4356737;32;33531;-87
2022/01/26 03:44:20;;;;;;;22.83;10.55;;;;;;;4.76;63.66;101001.72;4372261;32;33509;-88
2022/01/26 03:46:50;;;;;;;22.05;11.15;;;;;;;4.76;63.66;101003.47;4369039;32;32986;-88
2022/01/26 03:49:17;;;;;;;25.55;11.43;;;;;;;4.91;63.15;101007.81;4380810;32;32844;-89
2022/01/26 03:51:45;;;;;;;23.17;11.15;;;;;;;5.26;62.05;101002.50;4363385;32;32991;-88
2022/01/26 03:54:14;;;;;;;22.98;11.25;;;;;;;4.95;62.81;100999.97;4362341;32;32483;-88
2022/01/26 03:56:42;;;;;;;21.87;9.82;;;;;;;5.00;62.68;100999.97;4359861;32;32370;-88
2022/01/26 03:59:11;;;;;;;28.42;11.38;;;;;;;4.75;63.00;100997.38;4386391;32;31947;-89
2022/01/26 04:01:39;;;;;;;21.08;10.77;;;;;;;5.00;62.46;100997.34;4376278;32;33320;-90
2022/01/26 04:04:08;;;;;;;24.77;11.12;;;;;;;5.08;62.06;100999.06;4368240;32;34092;-90
2022/01/26 04:06:38;;;;;;;19.23;9.80;;;;;;;5.33;61.27;100999.87;4355828;32;33032;-90
2022/01/26 04:09:08;;;;;;;23.05;10.18;;;;;;;4.97;62.39;100998.19;4357656;32;32536;-90
2022/01/26 04:11:43;;;;;;;24.35;11.85;;;;;;;4.68;63.25;100998.25;4355050;32;33059;-89
2022/01/26 04:14:14;;;;;;;23.55;10.82;;;;;;;5.03;62.37;100992.09;4369753;32;33147;-89
2022/01/26 04:16:43;;;;;;;23.67;11.45;;;;;;;4.99;62.50;100990.38;4358814;32;33995;-89
2022/01/26 04:19:11;;;;;;;22.02;9.73;;;;;;;5.14;62.26;100992.94;4368426;32;33199;-89
2022/01/26 04:27:12;;;;;;;20.17;9.55;;;;;;;5.02;62.42;100995.56;4376504;32;32421;-89
2022/01/26 04:29:40;;;;;;;21.40;10.73;;;;;;;4.98;62.39;100994.69;4358820;32;34125;-89
2022/01/26 04:32:08;;;;;;;22.33;10.85;;;;;;;5.09;61.88;100995.56;4383448;32;33560;-89
2022/01/26 04:34:36;;;;;;;24.30;10.65;;;;;;;5.09;61.86;100992.09;4358531;32;33786;-89
2022/01/26 04:39:48;;;;;;;22.62;10.52;;;;;;;4.73;62.41;100982.53;4364224;32;33565;-89
2022/01/26 04:42:25;;;;;;;21.10;9.90;;;;;;;4.68;62.22;100979.94;4364702;32;33768;-89
2022/01/26 04:45:01;;;;;;;21.92;9.55;;;;;;;4.76;61.78;100982.53;4377204;32;34065;-88
2022/01/26 04:47:29;;;;;;;25.05;10.70;;;;;;;4.88;61.36;100991.22;4358752;32;33011;-88
2022/01/26 04:49:57;;;;;;;19.67;9.18;;;;;;;4.75;61.49;100992.16;4375596;32;33087;-88
2022/01/26 04:52:24;;;;;;;19.05;9.93;;;;;;;4.88;61.06;100991.22;4363785;32;33240;-88
2022/01/26 04:54:53;;;;;;;23.38;10.63;;;;;;;4.89;61.03;100994.75;4375632;32;33153;-88
2022/01/26 04:57:21;;;;;;;23.85;10.43;;;;;;;4.72;61.27;100986.91;4364007;32;33025;-87
2022/01/26 04:59:49;;;;;;;19.95;10.02;;;;;;;4.71;61.17;100985.16;4364417;32;33590;-88
2022/01/26 05:02:17;;;;;;;20.20;10.10;;;;;;;4.78;60.93;100986.88;4368829;32;33803;-88
2022/01/26 05:04:45;;;;;;;23.08;9.95;;;;;;;4.80;60.93;100985.16;4363692;32;33532;-88
2022/01/26 05:07:12;;;;;;;24.23;12.00;;;;;;;4.71;61.09;100985.16;4364206;32;33427;-88
2022/01/26 05:09:41;;;;;;;20.67;9.68;;;;;;;4.88;60.68;100982.50;4363775;32;33751;-87
2022/01/26 05:12:09;;;;;;;24.60;10.05;;;;;;;4.72;61.13;100986.91;4351405;32;32809;-87
2022/01/26 05:14:40;;;;;;;22.05;9.27;;;;;;;4.72;60.96;100980.81;4381499;32;34127;-89
2022/01/26 05:17:08;;;;;;;22.10;9.90;;;;;;;4.73;60.83;100987.78;4364240;32;34129;-88
2022/01/26 05:19:35;;;;;;;23.92;10.73;;;;;;;4.64;60.98;100983.41;4363413;32;34134;-88
2022/01/26 05:22:03;;;;;;;23.77;11.05;;;;;;;4.68;60.89;100979.94;4376288;32;32258;-88
2022/01/26 05:24:31;;;;;;;21.25;10.10;;;;;;;4.74;60.69;100979.91;4373661;32;34448;-88
2022/01/26 05:26:59;;;;;;;22.35;10.35;;;;;;;4.63;61.01;100977.31;4376761;32;33929;-88
2022/01/26 05:29:27;;;;;;;21.80;10.35;;;;;;;4.55;61.32;100979.06;4372603;32;34181;-87
2022/01/26 05:31:55;;;;;;;20.88;9.88;;;;;;;4.55;61.26;100973.81;4384267;32;32616;-88
2022/01/26 05:34:22;;;;;;;24.30;10.75;;;;;;;4.51;61.54;100976.44;4377068;32;32880;-88
2022/01/26 05:36:50;;;;;;;26.80;10.98;;;;;;;4.49;61.58;100979.06;4361030;32;33154;-88
2022/01/26 05:39:18;;;;;;;22.17;11.02;;;;;;;4.32;62.06;100976.47;4361304;32;32524;-88
2022/01/26 05:41:46;;;;;;;19.45;9.68;;;;;;;4.41;61.87;100974.69;4367505;32;33057;-88
2022/01/26 05:44:13;;;;;;;23.85;11.00;;;;;;;4.51;61.66;100979.06;4373395;32;33181;-88
2022/01/26 05:46:46;;;;;;;21.45;10.90;;;;;;;4.52;61.70;100978.19;4359777;32;34032;-86
2022/01/26 05:49:16;;;;;;;22.27;10.68;;;;;;;4.56;61.71;100986.06;4372469;32;33163;-86
2022/01/26 05:51:48;;;;;;;24.35;10.18;;;;;;;4.61;61.77;100986.91;4370931;32;32628;-88
2022/01/26 05:54:15;;;;;;;25.05;11.48;;;;;;;4.38;62.81;100996.50;4363287;32;32800;-87
2022/01/26 05:56:46;;;;;;;29.37;12.55;;;;;;;4.74;61.60;100989.50;4352463;32;33155;-88
2022/01/26 05:59:16;;;;;;;24.50;12.05;;;;;;;4.50;62.33;100982.53;4382629;32;92189;-87
2022/01/26 06:01:44;;;;;;;28.95;13.45;;;;;;;4.36;63.05;100988.63;4366934;32;35697;-88
2022/01/26 06:04:12;;;;;;;21.37;10.57;;;;;;;4.11;64.29;100998.19;4373448;32;33049;-87
2022/01/26 06:06:40;;;;;;;23.27;11.25;;;;;;;4.22;64.52;100995.59;4359067;32;33009;-87
2022/01/26 06:09:09;;;;;;;22.62;10.90;;;;;;;4.22;64.65;100990.38;4349668;32;34012;-87
2022/01/26 06:11:37;;;;;;;25.52;10.90;;;;;;;4.45;64.16;100992.13;4364456;32;33924;-88
2022/01/26 06:14:05;;;;;;;22.80;11.02;;;;;;;4.76;63.05;100993.88;4370262;32;32896;-87
2022/01/26 06:16:33;;;;;;;27.37;12.65;;;;;;;4.56;63.68;101001.75;4367215;32;33103;-87
2022/01/26 06:19:01;;;;;;;20.05;10.73;;;;;;;4.59;63.61;100999.09;4370414;32;34475;-88
2022/01/26 06:21:29;;;;;;;25.20;12.05;;;;;;;4.41;64.47;101004.31;4359183;32;33777;-88
2022/01/26 06:23:57;;;;;;;21.80;11.82;;;;;;;4.09;65.57;101004.31;4345306;32;32996;-88
2022/01/26 06:26:25;;;;;;;22.73;11.23;;;;;;;4.25;65.51;101005.19;4358934;32;33527;-88
2022/01/26 06:28:52;;;;;;;20.42;11.07;;;;;;;4.49;64.93;101004.34;4361628;32;32630;-88
2022/01/26 06:31:20;;;;;;;25.05;11.65;;;;;;;4.46;64.82;101004.34;4371789;32;32934;-87
2022/01/26 06:33:49;;;;;;;25.02;11.32;;;;;;;4.65;64.43;100999.97;4372220;32;34025;-86
2022/01/26 06:36:18;;;;;;;23.15;11.00;;;;;;;4.39;64.89;100995.63;4357603;32;34161;-88
2022/01/26 06:38:46;;;;;;;24.80;10.95;;;;;;;4.48;64.83;100993.00;4383513;32;33639;-88
2022/01/26 06:41:22;;;;;;;24.50;11.27;;;;;;;4.46;65.23;100999.09;4347488;32;35279;-86
2022/01/26 06:43:56;;;;;;;22.00;10.48;;;;;;;4.66;64.56;100997.38;4374601;32;33478;-87
2022/01/26 06:46:34;;;;;;;17.45;10.23;;;;;;;4.74;64.23;100994.75;4377294;32;33839;-87
2022/01/26 06:52:06;;;;;;;24.30;11.27;;;;;;;4.59;64.30;101006.09;4337498;33;33826;-87
2022/01/26 06:54:34;;;;;;;21.87;11.85;;;;;;;4.58;64.62;100999.13;4368180;32;33223;-88
2022/01/26 06:57:01;;;;;;;22.62;11.45;;;;;;;5.14;62.86;101000.81;4377142;32;32531;-88
2022/01/26 06:59:30;;;;;;;23.95;10.50;;;;;;;5.01;63.09;100997.31;4370286;32;33423;-87
2022/01/26 07:01:58;;;;;;;23.80;10.88;;;;;;;5.09;63.02;101005.19;4385188;32;31683;-88
2022/01/26 07:04:26;;;;;;;21.98;9.77;;;;;;;5.02;62.94;100996.44;4381616;32;33140;-88
2022/01/26 07:06:54;;;;;;;16.12;9.20;;;;;;;5.33;61.87;100997.25;4370020;32;32831;-88
2022/01/26 07:09:22;;;;;;;19.80;10.70;;;;;;;4.95;63.12;101001.72;4370661;32;32981;-89
2022/01/26 07:11:50;;;;;;;25.88;10.73;;;;;;;5.19;62.75;100999.03;4363050;32;32236;-90
2022/01/26 07:23:09;;;;;;;20.90;8.77;;;;;;;5.19;62.38;100996.41;4360458;32;32696;-90
2022/01/26 07:25:38;;;;;;;16.35;8.65;;;;;;;5.19;62.71;100998.16;4360926;32;33127;-88
2022/01/26 07:28:06;;;;;;;18.87;8.90;;;;;;;5.32;61.86;100990.28;4357313;32;33010;-88
2022/01/26 07:30:37;;;;;;;19.58;10.02;;;;;;;5.24;62.10;100986.81;4352389;32;32728;-88
2022/01/26 07:33:06;;;;;;;25.40;12.02;;;;;;;5.51;61.24;100985.84;4382954;32;32300;-88
2022/01/26 07:35:34;;;;;;;27.48;12.73;;;;;;;5.30;62.02;100986.78;4357520;32;34567;-88
2022/01/26 07:38:03;;;;;;;25.73;12.80;;;;;;;5.40;61.74;100987.62;4351102;32;32533;-87
2022/01/26 07:40:31;;;;;;;21.27;11.27;;;;;;;5.20;62.49;100990.31;4351977;32;33460;-88
2022/01/26 07:42:59;;;;;;;20.92;11.18;;;;;;;5.31;61.97;100992.87;4359258;32;32900;-88
2022/01/26 07:45:26;;;;;;;21.27;10.82;;;;;;;5.04;62.84;100986.88;4348914;32;32754;-88
2022/01/26 07:47:55;;;;;;;18.92;9.52;;;;;;;5.31;62.01;100993.75;4363871;32;32232;-88
2022/01/26 07:50:25;;;;;;;18.05;8.63;;;;;;;5.00;62.93;100987.75;4347534;32;33346;-88
2022/01/26 07:52:53;;;;;;;18.85;8.07;;;;;;;5.14;62.33;100996.44;4371515;32;33266;-88
2022/01/26 07:55:23;;;;;;;17.75;8.15;;;;;;;5.29;61.95;100998.12;4372446;32;33038;-88
2022/01/26 07:57:51;;;;;;;16.67;8.55;;;;;;;5.21;61.92;100994.66;4362701;32;32065;-88
2022/01/26 08:00:19;;;;;;;16.75;8.70;;;;;;;4.94;63.06;100993.00;4346091;32;32992;-88
2022/01/26 08:02:47;;;;;;;17.52;7.93;;;;;;;5.33;61.68;100994.62;4371279;32;34980;-88
2022/01/26 08:05:16;;;;;;;16.58;8.23;;;;;;;5.24;61.53;100999.91;4371079;32;34164;-88
2022/01/26 08:07:44;;;;;;;16.05;8.23;;;;;;;5.03;62.42;100992.97;4364922;32;32210;-88
2022/01/26 08:10:12;;;;;;;19.70;9.40;;;;;;;5.05;62.22;100992.97;4351043;32;33492;-88
2022/01/26 08:12:40;;;;;;;17.27;8.65;;;;;;;5.09;62.28;100995.56;4371926;32;32779;-89
2022/01/26 08:15:26;;;;;;;15.43;7.85;;;;;;;5.47;61.11;100988.47;4372669;32;34308;-88
2022/01/26 08:17:55;;;;;;;19.62;7.97;;;;;;;5.40;61.32;100992.84;4351717;32;33001;-88
2022/01/26 08:20:22;;;;;;;12.25;7.35;;;;;;;5.34;61.46;100983.28;4361957;32;34224;-88
2022/01/26 08:22:52;;;;;;;12.48;7.05;;;;;;;5.39;61.29;100986.75;4363544;32;33756;-88
2022/01/26 08:25:21;;;;;;;16.95;7.70;;;;;;;5.43;61.09;100987.62;4373237;32;32577;-88
2022/01/26 08:27:56;;;;;;;16.83;8.95;;;;;;;5.39;61.25;100981.50;4364408;32;32173;-87
2022/01/26 08:30:24;;;;;;;16.52;8.70;;;;;;;5.50;60.56;100977.97;4349703;32;32401;-87
2022/01/26 08:32:52;;;;;;;17.33;8.20;;;;;;;5.47;60.86;100983.25;4372377;32;33555;-87
2022/01/26 08:35:20;;;;;;;18.00;7.65;;;;;;;5.39;61.03;100981.50;4373247;32;32874;-87
2022/01/26 08:37:48;;;;;;;19.92;10.13;;;;;;;5.13;62.06;100983.34;4352917;32;31944;-88
2022/01/26 08:40:16;;;;;;;16.65;8.75;;;;;;;5.20;61.73;100982.44;4374383;32;32545;-88
2022/01/26 08:42:43;;;;;;;19.42;9.25;;;;;;;4.87;63.08;100981.66;4375554;32;33725;-87
2022/01/26 08:45:11;;;;;;;17.95;9.00;;;;;;;4.85;62.99;100986.03;4362296;32;33914;-88
2022/01/26 08:47:39;;;;;;;14.18;7.93;;;;;;;5.08;62.23;100985.09;4368130;32;32332;-88
2022/01/26 08:50:07;;;;;;;12.82;7.18;;;;;;;5.21;61.54;100986.81;4349575;32;33488;-87
2022/01/26 08:52:35;;;;;;;14.45;7.70;;;;;;;5.08;62.22;100991.22;4349728;32;33657;-88
2022/01/26 08:55:03;;;;;;;13.30;6.03;;;;;;;5.47;61.09;100994.59;4362249;32;32823;-88
2022/01/26 08:57:31;;;;;;;16.60;7.85;;;;;;;5.47;60.52;100991.97;4372477;32;32578;-88
2022/01/26 09:00:00;;;;;;;14.05;7.43;;;;;;;5.59;60.42;100989.28;4367859;32;32943;-87
2022/01/26 09:02:28;;;;;;;16.65;8.32;;;;;;;5.73;59.80;100996.22;4374767;32;34354;-86
2022/01/26 09:04:56;;;;;;;16.62;7.87;;;;;;;5.30;61.52;101002.50;4385921;32;34337;-85
2022/01/26 09:07:24;;;;;;;15.70;7.68;;;;;;;5.61;60.39;101007.63;4359584;32;33312;-85
2022/01/26 09:09:55;;;;;;;15.50;7.57;;;;;;;5.39;61.00;101002.47;4375314;32;32670;-86
2022/01/26 09:12:24;;;;;;;13.93;7.20;;;;;;;5.35;61.21;101010.34;4363569;32;34061;-85
2022/01/26 09:14:53;;;;;;;15.95;7.87;;;;;;;5.50;60.77;100993.69;4354872;32;33944;-85
2022/01/26 09:17:23;;;;;;;15.52;7.65;;;;;;;5.38;61.28;100985.00;4357359;32;32360;-85
2022/01/26 09:19:52;;;;;;;15.00;8.07;;;;;;;5.53;60.68;100993.69;4353526;32;33265;-86
2022/01/26 09:22:20;;;;;;;13.82;7.22;;;;;;;5.78;60.00;100995.31;4363664;32;33827;-87
2022/01/26 09:24:47;;;;;;;16.65;8.32;;;;;;;5.74;59.89;100998.81;4348917;32;33164;-87
2022/01/26 09:27:17;;;;;;;17.25;9.48;;;;;;;5.88;59.56;100986.50;4363452;32;33380;-87
2022/01/26 09:29:46;;;;;;;18.70;9.48;;;;;;;5.93;59.25;101006.63;4351060;32;33387;-87
2022/01/26 09:32:14;;;;;;;18.77;9.15;;;;;;;5.82;59.84;100994.41;4350649;32;33320;-87
2022/01/26 09:34:43;;;;;;;15.07;8.20;;;;;;;5.87;59.44;101005.75;4363260;32;32344;-87
2022/01/26 09:37:12;;;;;;;23.83;9.57;;;;;;;6.08;58.78;100999.56;4372312;32;32501;-87
2022/01/26 09:39:42;;;;;;;15.48;7.57;;;;;;;6.05;59.16;101006.56;4351360;32;33821;-86
2022/01/26 09:42:10;;;;;;;15.07;8.05;;;;;;;6.27;58.24;101000.31;4381433;32;33002;-86
2022/01/26 09:44:38;;;;;;;18.45;8.68;;;;;;;6.27;58.47;100992.44;4361577;32;33696;-87
2022/01/26 09:47:08;;;;;;;15.30;7.65;;;;;;;6.41;58.36;100998.47;4362680;32;33383;-86
2022/01/26 09:49:36;;;;;;;12.57;7.00;;;;;;;6.51;57.50;100998.41;4350493;32;33134;-87
2022/01/26 09:52:14;;;;;;;13.98;7.35;;;;;;;5.87;59.18;100990.03;4365970;32;33744;-87
2022/01/26 09:54:42;;;;;;;15.77;7.55;;;;;;;6.15;58.47;101003.00;4355962;32;32959;-86
2022/01/26 09:57:28;;;;;;;13.35;7.18;;;;;;;5.87;59.21;100984.78;4355072;32;33278;-87
2022/01/26 09:59:56;;;;;;;14.55;7.43;;;;;;;6.04;58.41;100986.47;4352061;32;33162;-87
2022/01/26 10:02:35;;;;;;;16.05;7.50;;;;;;;5.58;60.17;100982.31;4353900;32;33061;-86
2022/01/26 10:05:07;;;;;;;12.70;7.40;;;;;;;5.69;59.92;100990.09;4349954;32;33668;-86
2022/01/26 10:18:50;;;;;;;17.37;7.50;;;;;;;6.35;57.77;100966.13;4349316;32;32417;-87
2022/01/26 10:21:17;;;;;;;14.90;8.18;;;;;;;6.15;58.31;100966.28;4360611;32;33634;-87
2022/01/26 10:27:11;;;;;;;16.30;6.95;;;;;;;6.33;58.14;100957.44;4360740;32;34551;-87
2022/01/26 10:29:45;;;;;;;15.32;8.18;;;;;;;6.51;57.60;100967.78;4348325;32;32317;-86
2022/01/26 10:32:13;;;;;;;13.80;6.40;;;;;;;6.10;58.84;100970.69;4367829;32;33460;-87
2022/01/26 10:34:41;;;;;;;12.07;6.95;;;;;;;6.04;59.04;100971.63;4373772;32;34146;-86
2022/01/26 10:37:09;;;;;;;12.40;6.55;;;;;;;6.25;58.33;100959.22;4374177;32;34505;-87
2022/01/26 10:39:43;;;;;;;13.80;7.35;;;;;;;6.07;58.60;100966.34;4374418;32;33263;-87
2022/01/26 10:42:13;;;;;;;12.55;6.05;;;;;;;6.46;57.61;100960.78;4372279;32;33806;-87
2022/01/26 10:44:48;;;;;;;13.20;6.25;;;;;;;6.65;56.62;100960.66;4379176;32;32881;-87
2022/01/26 10:47:34;;;;;;;13.23;6.80;;;;;;;6.52;57.78;100963.38;4367926;32;34902;-87
2022/01/26 10:50:31;;;;;;;14.55;6.93;;;;;;;6.90;55.83;100961.28;4354951;32;31722;-86
2022/01/26 10:53:11;;;;;;;16.35;7.47;;;;;;;7.03;55.71;100962.03;4356659;32;33865;-87
2022/01/26 10:55:39;;;;;;;13.20;7.28;;;;;;;6.78;56.78;100955.28;4371861;32;33862;-87
2022/01/26 10:58:08;;;;;;;13.00;7.12;;;;;;;6.61;56.78;100960.69;4358091;32;34689;-87
2022/01/26 11:00:37;;;;;;;12.02;6.32;;;;;;;6.97;55.95;100956.81;4374445;32;33450;-87
2022/01/26 11:03:06;;;;;;;13.57;6.60;;;;;;;6.98;56.46;100953.34;4374276;32;33116;-87
2022/01/26 11:05:34;;;;;;;16.17;7.78;;;;;;;6.32;57.98;100953.06;4373852;32;33205;-87
2022/01/26 11:08:02;;;;;;;8.80;5.78;;;;;;;6.53;57.38;100950.25;4375893;32;33184;-86
2022/01/26 11:10:35;;;;;;;11.50;6.62;;;;;;;6.88;56.01;100944.69;4361865;32;34176;-86
2022/01/26 11:13:04;;;;;;;13.88;6.62;;;;;;;6.71;56.68;100943.97;4374592;32;32398;-86
2022/01/26 11:15:32;;;;;;;12.85;6.47;;;;;;;7.05;55.57;100943.62;4362011;32;35094;-86
2022/01/26 11:18:12;;;;;;;11.23;5.62;;;;;;;6.89;55.74;100942.91;4367009;32;33167;-86
2022/01/26 11:20:51;;;;;;;10.02;5.70;;;;;;;6.68;56.23;100949.25;4363896;32;32605;-86
2022/01/26 11:23:20;;;;;;;10.43;5.47;;;;;;;6.67;56.10;100947.50;4379697;32;32753;-85
2022/01/26 11:25:49;;;;;;;11.98;5.37;;;;;;;6.98;55.25;100957.69;4348984;32;32732;-85
2022/01/26 11:28:19;;;;;;;13.30;6.45;;;;;;;6.80;55.83;100951.75;4362402;32;33477;-86
2022/01/26 11:30:48;;;;;;;10.98;5.62;;;;;;;6.68;56.49;100954.47;4351309;32;32848;-86
2022/01/26 11:33:19;;;;;;;12.32;6.40;;;;;;;6.93;55.31;100945.50;4362021;32;34182;-86
2022/01/26 11:35:51;;;;;;;11.77;6.15;;;;;;;7.19;54.29;100944.34;4370937;32;34010;-86
2022/01/26 11:47:21;;;;;;;12.30;6.05;;;;;;;7.11;55.10;100938.28;4364765;32;32847;-86
2022/01/26 11:50:07;;;;;;;10.85;5.80;;;;;;;7.39;53.74;100942.31;4361467;32;33551;-85
2022/01/26 11:52:38;;;;;;;11.65;6.28;;;;;;;7.22;54.38;100938.19;4373824;32;32357;-86
2022/01/26 11:55:19;;;;;;;11.10;5.90;;;;;;;7.29;54.63;100940.72;4372699;32;33243;-86
2022/01/26 11:57:51;;;;;;;12.45;6.22;;;;;;;7.09;54.72;100934.81;4361589;32;34859;-86
2022/01/26 12:00:42;;;;;;;10.70;5.57;;;;;;;7.36;53.96;100931.00;4360990;32;33685;-86
2022/01/26 12:03:31;;;;;;;41.15;15.88;;;;;;;7.58;53.24;100927.19;4374006;32;33414;-87
2022/01/26 12:05:59;;;;;;;14.85;8.35;;;;;;;7.59;53.37;100921.03;4360890;32;33064;-86
2022/01/26 12:08:36;;;;;;;15.27;7.20;;;;;;;7.68;53.35;100922.69;4361516;32;33071;-86
2022/01/26 12:11:09;;;;;;;11.48;6.60;;;;;;;7.74;52.99;100912.09;4357105;32;34127;-86
2022/01/26 12:13:38;;;;;;;20.35;8.27;;;;;;;7.57;53.07;100908.81;4367594;32;32924;-86
2022/01/26 12:16:12;;;;;;;18.70;8.82;;;;;;;7.46;53.68;100908.97;4368306;32;33274;-86
2022/01/26 12:38:41;;;;;;;18.77;9.02;;;;;;;7.42;53.67;100887.13;4358961;32;34677;-86
2022/01/26 12:41:28;;;;;;;13.02;6.68;;;;;;;7.33;54.21;100886.38;4358332;32;33097;-86
2022/01/26 12:44:10;;;;;;;13.40;6.82;;;;;;;7.77;52.79;100888.37;4360529;32;32310;-86
2022/01/26 12:46:45;;;;;;;12.57;6.68;;;;;;;7.92;52.08;100882.88;4358388;32;34168;-86
2022/01/26 12:49:19;;;;;;;13.38;6.12;;;;;;;7.59;53.17;100880.75;4364690;32;33726;-86
2022/01/26 12:51:54;;;;;;;13.07;6.00;;;;;;;7.56;53.38;100875.56;4365689;32;34062;-86
2022/01/26 12:54:22;;;;;;;10.60;6.10;;;;;;;7.49;53.56;100877.37;4352504;32;33917;-86
2022/01/26 12:56:50;;;;;;;11.45;6.25;;;;;;;7.62;53.04;100872.81;4364447;32;33854;-86
2022/01/26 12:59:21;;;;;;;11.73;5.68;;;;;;;7.68;52.92;100867.47;4359527;32;33766;-86
2022/01/26 13:01:53;;;;;;;10.60;5.22;;;;;;;7.37;53.68;100881.06;4371333;32;34067;-86
2022/01/26 13:04:21;;;;;;;;;;;;;;;7.33;53.89;100881.97;4358131;32;33165;-86
2022/01/26 13:06:51;;;;;;;7.07;4.53;;;;;;;7.14;54.51;100889.22;4358269;32;31842;-86
2022/01/26 13:09:26;;;;;;;10.10;5.45;;;;;;;7.13;54.12;100876.12;4359413;32;35112;-86
2022/01/26 13:11:56;;;;;;;7.12;4.43;;;;;;;7.29;53.34;100882.91;4359975;32;33744;-86
2022/01/26 13:14:29;;;;;;;9.00;5.70;;;;;;;7.37;53.25;100881.06;4358964;32;34589;-86
2022/01/26 13:17:24;;;;;;;11.05;5.68;;;;;;;7.11;54.24;100885.75;4346999;32;31525;-86
2022/01/26 13:20:28;;;;;;;9.52;4.40;;;;;;;7.42;53.32;100876.59;4370507;32;34642;-86
2022/01/26 13:34:11;;;;;;;10.25;5.18;;;;;;;7.64;52.56;100876.28;4352281;32;33233;-86
2022/01/26 13:42:39;;;;;;;8.85;5.43;;;;;;;7.48;53.44;100872.16;4353291;32;33342;-86
2022/01/26 13:53:25;;;;;;;10.75;5.30;;;;;;;7.54;53.60;100875.56;4371010;32;34064;-85
2022/01/26 14:00:59;;;;;;;8.90;5.03;;;;;;;7.55;52.82;100873.78;4352811;32;32515;-85
2022/01/26 14:03:30;;;;;;;10.20;5.22;;;;;;;7.38;53.15;100879.28;4377599;32;34037;-85
2022/01/26 14:05:58;;;;;;;9.15;5.40;;;;;;;7.01;54.10;100882.38;4389349;32;32887;-85
2022/01/26 14:08:25;;;;;;;11.15;5.82;;;;;;;7.09;54.40;100874.41;4375031;32;34118;-85
2022/01/26 14:10:53;;;;;;;8.82;4.97;;;;;;;7.53;52.68;100870.31;4367499;32;32979;-85
2022/01/26 14:13:23;;;;;;;10.98;5.15;;;;;;;7.68;52.11;100872.72;4367257;32;33367;-85
2022/01/26 14:15:54;;;;;;;12.73;6.22;;;;;;;7.35;52.86;100880.19;4359022;32;33175;-85
2022/01/26 14:21:10;;;;;;;10.65;5.40;;;;;;;7.10;53.97;100869.12;4360439;32;31871;-85
2022/01/26 14:23:59;;;;;;;10.07;5.85;;;;;;;7.38;52.70;100867.03;4356833;32;33804;-85
2022/01/26 14:26:31;;;;;;;10.63;5.32;;;;;;;7.31;52.81;100865.38;4369841;32;33322;-84